sensor_id;sensor_type;location;lat;lon;timestamp;pressure;altitude;pressure_sealevel;temperature;humidity
63535;BME280;55128;50.230;18.944;2023-05-20T00:02:47;99339.31;;;11.34;86.31
63535;BME280;55128;50.230;18.944;2023-05-20T00:07:48;99335.00;;;11.29;85.93
63535;BME280;55128;50.230;18.944;2023-05-20T00:12:48;99333.16;;;11.32;85.43
63535;BME280;55128;50.230;18.944;2023-05-20T00:17:48;99335.50;;;11.17;86.16
63535;BME280;55128;50.230;18.944;2023-05-20T00:22:49;99330.50;;;11.32;85.87
63535;BME280;55128;50.230;18.944;2023-05-20T00:27:49;99335.00;;;11.29;85.56
63535;BME280;55128;50.230;18.944;2023-05-20T00:32:50;99333.56;;;11.44;84.85
63535;BME280;55128;50.230;18.944;2023-05-20T00:37:50;99337.53;;;11.34;85.61
63535;BME280;55128;50.230;18.944;2023-05-20T00:42:50;99329.84;;;11.26;85.47
63535;BME280;55128;50.230;18.944;2023-05-20T00:47:51;99322.81;;;11.24;85.79
63535;BME280;55128;50.230;18.944;2023-05-20T00:52:51;99324.84;;;11.17;85.77
63535;BME280;55128;50.230;18.944;2023-05-20T00:57:54;99312.72;;;11.10;86.20
63535;BME280;55128;50.230;18.944;2023-05-20T01:02:55;99309.97;;;11.13;86.34
63535;BME280;55128;50.230;18.944;2023-05-20T01:07:56;99309.03;;;11.38;85.94
63535;BME280;55128;50.230;18.944;2023-05-20T01:13:00;99306.81;;;11.25;85.68
63535;BME280;55128;50.230;18.944;2023-05-20T01:18:04;99308.31;;;11.33;85.34
63535;BME280;55128;50.230;18.944;2023-05-20T01:23:06;99299.53;;;11.07;85.97
63535;BME280;55128;50.230;18.944;2023-05-20T01:28:07;99302.59;;;11.20;84.94
63535;BME280;55128;50.230;18.944;2023-05-20T01:33:10;99305.91;;;11.26;85.38
63535;BME280;55128;50.230;18.944;2023-05-20T01:38:11;99310.88;;;11.12;85.73
63535;BME280;55128;50.230;18.944;2023-05-20T01:43:12;99318.56;;;11.20;85.13
63535;BME280;55128;50.230;18.944;2023-05-20T01:48:13;99306.00;;;11.23;85.00
63535;BME280;55128;50.230;18.944;2023-05-20T01:53:13;99315.19;;;11.15;85.54
63535;BME280;55128;50.230;18.944;2023-05-20T01:58:14;99307.41;;;11.10;85.91
63535;BME280;55128;50.230;18.944;2023-05-20T02:03:14;99297.69;;;11.09;85.44
63535;BME280;55128;50.230;18.944;2023-05-20T02:08:15;99309.25;;;11.08;85.98
63535;BME280;55128;50.230;18.944;2023-05-20T02:13:15;99307.16;;;11.16;84.95
63535;BME280;55128;50.230;18.944;2023-05-20T02:18:15;99307.16;;;11.16;85.07
63535;BME280;55128;50.230;18.944;2023-05-20T02:23:17;99305.41;;;11.17;85.29
63535;BME280;55128;50.230;18.944;2023-05-20T02:28:17;99306.47;;;11.11;85.61
63535;BME280;55128;50.230;18.944;2023-05-20T02:33:18;99316.03;;;10.92;86.45
63535;BME280;55128;50.230;18.944;2023-05-20T02:38:19;99324.81;;;10.94;86.26
63535;BME280;55128;50.230;18.944;2023-05-20T02:43:19;99319.75;;;10.87;86.63
63535;BME280;55128;50.230;18.944;2023-05-20T02:48:20;99321.94;;;11.00;85.95
63535;BME280;55128;50.230;18.944;2023-05-20T02:53:20;99322.50;;;11.09;86.40
63535;BME280;55128;50.230;18.944;2023-05-20T02:58:20;99311.84;;;11.09;86.47
63535;BME280;55128;50.230;18.944;2023-05-20T03:03:25;99324.97;;;11.14;86.65
63535;BME280;55128;50.230;18.944;2023-05-20T03:08:26;99320.59;;;11.13;87.37
63535;BME280;55128;50.230;18.944;2023-05-20T03:13:26;99323.25;;;11.13;86.91
63535;BME280;55128;50.230;18.944;2023-05-20T03:18:27;99327.34;;;11.22;86.75
63535;BME280;55128;50.230;18.944;2023-05-20T03:23:27;99323.88;;;11.20;87.41
63535;BME280;55128;50.230;18.944;2023-05-20T03:28:28;99328.09;;;11.25;88.36
63535;BME280;55128;50.230;18.944;2023-05-20T03:33:28;99328.59;;;11.35;86.70
63535;BME280;55128;50.230;18.944;2023-05-20T03:38:29;99329.50;;;11.36;86.98
63535;BME280;55128;50.230;18.944;2023-05-20T03:43:30;99328.22;;;11.22;87.64
63535;BME280;55128;50.230;18.944;2023-05-20T03:48:30;99328.22;;;11.22;87.85
63535;BME280;55128;50.230;18.944;2023-05-20T03:53:31;99323.63;;;11.26;88.14
63535;BME280;55128;50.230;18.944;2023-05-20T03:58:31;99330.50;;;11.55;86.67
63535;BME280;55128;50.230;18.944;2023-05-20T04:03:32;99336.38;;;11.63;86.78
63535;BME280;55128;50.230;18.944;2023-05-20T04:08:32;99328.75;;;11.54;86.47
63535;BME280;55128;50.230;18.944;2023-05-20T04:13:35;99321.19;;;11.67;86.00
63535;BME280;55128;50.230;18.944;2023-05-20T04:18:35;99331.25;;;11.59;86.27
63535;BME280;55128;50.230;18.944;2023-05-20T04:23:38;99349.31;;;11.51;87.23
63535;BME280;55128;50.230;18.944;2023-05-20T04:28:38;99352.25;;;11.66;86.68
63535;BME280;55128;50.230;18.944;2023-05-20T04:33:41;99339.13;;;11.84;86.40
63535;BME280;55128;50.230;18.944;2023-05-20T04:38:41;99337.03;;;11.94;85.85
63535;BME280;55128;50.230;18.944;2023-05-20T04:43:43;99330.72;;;11.96;85.88
63535;BME280;55128;50.230;18.944;2023-05-20T04:48:44;99326.06;;;12.01;85.62
63535;BME280;55128;50.230;18.944;2023-05-20T04:53:47;99334.41;;;12.14;84.97
63535;BME280;55128;50.230;18.944;2023-05-20T04:58:49;99329.81;;;12.40;83.88
63535;BME280;55128;50.230;18.944;2023-05-20T05:03:50;99334.13;;;12.42;84.49
63535;BME280;55128;50.230;18.944;2023-05-20T05:08:51;99346.03;;;12.56;83.53
63535;BME280;55128;50.230;18.944;2023-05-20T05:13:51;99341.09;;;12.67;83.34
63535;BME280;55128;50.230;18.944;2023-05-20T05:18:52;99335.94;;;12.62;83.59
63535;BME280;55128;50.230;18.944;2023-05-20T05:23:52;99323.03;;;12.74;82.95
63535;BME280;55128;50.230;18.944;2023-05-20T05:28:55;99327.16;;;12.81;83.02
63535;BME280;55128;50.230;18.944;2023-05-20T05:33:56;99326.81;;;12.89;82.39
63535;BME280;55128;50.230;18.944;2023-05-20T05:38:56;99317.31;;;12.83;82.50
63535;BME280;55128;50.230;18.944;2023-05-20T05:43:57;99316.38;;;13.05;81.51
63535;BME280;55128;50.230;18.944;2023-05-20T05:48:58;99319.47;;;13.14;81.16
63535;BME280;55128;50.230;18.944;2023-05-20T05:53:58;99328.56;;;13.10;82.19
63535;BME280;55128;50.230;18.944;2023-05-20T05:58:58;99319.78;;;13.27;81.36
63535;BME280;55128;50.230;18.944;2023-05-20T06:03:59;99325.97;;;13.28;81.27
63535;BME280;55128;50.230;18.944;2023-05-20T06:08:59;99329.34;;;13.52;80.08
63535;BME280;55128;50.230;18.944;2023-05-20T06:14:00;99325.78;;;13.32;80.70
63535;BME280;55128;50.230;18.944;2023-05-20T06:19:01;99320.63;;;13.67;79.89
63535;BME280;55128;50.230;18.944;2023-05-20T06:24:04;99320.63;;;13.67;79.15
63535;BME280;55128;50.230;18.944;2023-05-20T06:29:04;99319.16;;;13.79;78.64
63535;BME280;55128;50.230;18.944;2023-05-20T06:34:04;99315.47;;;14.00;78.03
63535;BME280;55128;50.230;18.944;2023-05-20T06:39:05;99315.00;;;14.64;76.94
63535;BME280;55128;50.230;18.944;2023-05-20T06:44:11;99311.84;;;14.38;76.30
63535;BME280;55128;50.230;18.944;2023-05-20T06:49:11;99317.97;;;14.75;75.24
63535;BME280;55128;50.230;18.944;2023-05-20T06:54:12;99311.53;;;14.62;75.03
63535;BME280;55128;50.230;18.944;2023-05-20T06:59:12;99314.34;;;14.93;74.28
63535;BME280;55128;50.230;18.944;2023-05-20T07:04:12;99308.59;;;15.01;74.23
63535;BME280;55128;50.230;18.944;2023-05-20T07:09:13;99303.63;;;15.11;74.05
63535;BME280;55128;50.230;18.944;2023-05-20T07:14:13;99307.16;;;15.11;73.73
63535;BME280;55128;50.230;18.944;2023-05-20T07:19:14;99300.97;;;15.27;72.86
63535;BME280;55128;50.230;18.944;2023-05-20T07:24:17;99300.97;;;15.27;73.20
63535;BME280;55128;50.230;18.944;2023-05-20T07:29:18;99301.13;;;15.24;73.23
63535;BME280;55128;50.230;18.944;2023-05-20T07:34:18;99293.44;;;15.51;72.50
63535;BME280;55128;50.230;18.944;2023-05-20T07:39:19;99305.00;;;15.51;72.65
63535;BME280;55128;50.230;18.944;2023-05-20T07:44:19;99300.53;;;16.00;71.97
63535;BME280;55128;50.230;18.944;2023-05-20T07:49:21;99297.88;;;16.30;70.52
63535;BME280;55128;50.230;18.944;2023-05-20T07:54:22;99296.53;;;16.23;70.67
63535;BME280;55128;50.230;18.944;2023-05-20T07:59:23;99289.94;;;16.59;69.83
63535;BME280;55128;50.230;18.944;2023-05-20T08:04:23;99285.00;;;16.67;69.36
63535;BME280;55128;50.230;18.944;2023-05-20T08:09:24;99280.59;;;16.80;68.66
63535;BME280;55128;50.230;18.944;2023-05-20T08:14:24;99276.41;;;17.48;67.79
63535;BME280;55128;50.230;18.944;2023-05-20T08:19:24;99269.19;;;17.63;65.97
63535;BME280;55128;50.230;18.944;2023-05-20T08:24:25;99258.47;;;17.48;66.12
63535;BME280;55128;50.230;18.944;2023-05-20T08:29:25;99257.13;;;17.97;66.24
63535;BME280;55128;50.230;18.944;2023-05-20T08:34:26;99265.84;;;18.41;64.25
63535;BME280;55128;50.230;18.944;2023-05-20T08:39:26;99263.16;;;18.41;63.79
63535;BME280;55128;50.230;18.944;2023-05-20T08:44:26;99257.50;;;18.58;63.53
63535;BME280;55128;50.230;18.944;2023-05-20T08:49:27;99263.53;;;18.75;62.46
63535;BME280;55128;50.230;18.944;2023-05-20T08:54:45;99270.84;;;19.37;60.66
63535;BME280;55128;50.230;18.944;2023-05-20T08:59:46;99260.88;;;19.63;60.31
63535;BME280;55128;50.230;18.944;2023-05-20T09:04:46;99268.97;;;20.00;59.01
63535;BME280;55128;50.230;18.944;2023-05-20T09:09:46;99271.09;;;20.08;59.64
63535;BME280;55128;50.230;18.944;2023-05-20T09:14:53;99265.88;;;20.17;58.33
63535;BME280;55128;50.230;18.944;2023-05-20T09:19:54;99272.88;;;20.44;57.63
63535;BME280;55128;50.230;18.944;2023-05-20T09:24:54;99268.81;;;20.96;55.98
63535;BME280;55128;50.230;18.944;2023-05-20T09:29:55;99277.41;;;20.79;56.15
63535;BME280;55128;50.230;18.944;2023-05-20T09:35:20;99268.94;;;20.48;56.80
63535;BME280;55128;50.230;18.944;2023-05-20T09:40:26;99249.47;;;20.20;57.77
63535;BME280;55128;50.230;18.944;2023-05-20T09:45:27;99244.53;;;20.38;57.52
63535;BME280;55128;50.230;18.944;2023-05-20T09:50:28;99251.06;;;20.58;57.30
63535;BME280;55128;50.230;18.944;2023-05-20T09:55:29;99246.06;;;20.30;57.76
63535;BME280;55128;50.230;18.944;2023-05-20T10:00:30;99249.31;;;20.46;58.30
63535;BME280;55128;50.230;18.944;2023-05-20T10:05:35;99239.94;;;20.28;58.41
63535;BME280;55128;50.230;18.944;2023-05-20T10:16:12;99250.31;;;20.56;57.57
63535;BME280;55128;50.230;18.944;2023-05-20T10:21:20;99245.16;;;20.42;57.89
63535;BME280;55128;50.230;18.944;2023-05-20T10:26:34;99243.00;;;19.99;59.29
63535;BME280;55128;50.230;18.944;2023-05-20T10:31:44;99243.56;;;20.97;56.88
63535;BME280;55128;50.230;18.944;2023-05-20T10:36:46;99234.31;;;20.66;56.75
63535;BME280;55128;50.230;18.944;2023-05-20T10:42:07;99229.06;;;20.76;57.16
63535;BME280;55128;50.230;18.944;2023-05-20T10:47:08;99221.47;;;21.15;55.69
63535;BME280;55128;50.230;18.944;2023-05-20T10:52:09;99226.94;;;20.68;56.50
63535;BME280;55128;50.230;18.944;2023-05-20T10:57:10;99223.19;;;21.16;56.15
63535;BME280;55128;50.230;18.944;2023-05-20T11:02:10;99208.78;;;20.59;57.00
63535;BME280;55128;50.230;18.944;2023-05-20T11:07:24;99214.00;;;20.49;57.92
63535;BME280;55128;50.230;18.944;2023-05-20T11:12:25;99215.22;;;20.45;57.72
63535;BME280;55128;50.230;18.944;2023-05-20T11:17:26;99200.72;;;20.24;58.05
63535;BME280;55128;50.230;18.944;2023-05-20T11:22:26;99193.22;;;20.16;58.47
63535;BME280;55128;50.230;18.944;2023-05-20T11:27:27;99190.50;;;20.63;57.98
63535;BME280;55128;50.230;18.944;2023-05-20T11:32:27;99183.97;;;20.43;58.45
63535;BME280;55128;50.230;18.944;2023-05-20T11:37:27;99191.16;;;20.31;58.15
63535;BME280;55128;50.230;18.944;2023-05-20T11:42:28;99180.03;;;20.00;60.07
63535;BME280;55128;50.230;18.944;2023-05-20T11:47:31;99175.38;;;20.02;60.16
63535;BME280;55128;50.230;18.944;2023-05-20T11:52:35;99164.84;;;19.99;60.53
63535;BME280;55128;50.230;18.944;2023-05-20T11:57:37;99148.47;;;20.25;60.65
63535;BME280;55128;50.230;18.944;2023-05-20T12:02:37;99171.81;;;20.02;60.52
63535;BME280;55128;50.230;18.944;2023-05-20T12:07:38;99161.94;;;20.13;60.74
63535;BME280;55128;50.230;18.944;2023-05-20T12:12:38;99148.91;;;20.43;60.61
63535;BME280;55128;50.230;18.944;2023-05-20T12:17:49;99149.19;;;20.15;60.95
63535;BME280;55128;50.230;18.944;2023-05-20T12:22:50;99134.03;;;20.26;60.21
63535;BME280;55128;50.230;18.944;2023-05-20T12:27:50;99122.34;;;20.14;60.60
63535;BME280;55128;50.230;18.944;2023-05-20T12:32:50;99122.13;;;20.28;60.04
63535;BME280;55128;50.230;18.944;2023-05-20T12:37:51;99120.34;;;20.63;59.85
63535;BME280;55128;50.230;18.944;2023-05-20T12:42:51;99108.06;;;20.58;60.37
63535;BME280;55128;50.230;18.944;2023-05-20T12:47:53;99104.41;;;20.59;59.81
63535;BME280;55128;50.230;18.944;2023-05-20T12:52:53;99113.63;;;20.68;58.92
63535;BME280;55128;50.230;18.944;2023-05-20T12:57:54;99102.59;;;20.60;60.33
63535;BME280;55128;50.230;18.944;2023-05-20T13:02:55;99102.09;;;20.77;60.28
63535;BME280;55128;50.230;18.944;2023-05-20T13:07:55;99104.44;;;20.82;58.99
63535;BME280;55128;50.230;18.944;2023-05-20T13:12:56;99099.41;;;21.44;57.99
63535;BME280;55128;50.230;18.944;2023-05-20T13:17:56;99095.63;;;21.24;57.43
63535;BME280;55128;50.230;18.944;2023-05-20T13:22:58;99086.41;;;21.26;58.11
63535;BME280;55128;50.230;18.944;2023-05-20T13:27:59;99093.63;;;21.37;59.05
63535;BME280;55128;50.230;18.944;2023-05-20T13:32:59;99069.47;;;21.24;57.77
63535;BME280;55128;50.230;18.944;2023-05-20T13:38:00;99061.72;;;20.99;58.91
63535;BME280;55128;50.230;18.944;2023-05-20T13:43:00;99064.84;;;21.15;57.93
63535;BME280;55128;50.230;18.944;2023-05-20T13:48:00;99066.38;;;21.40;58.05
63535;BME280;55128;50.230;18.944;2023-05-20T13:53:01;99060.84;;;21.53;56.57
63535;BME280;55128;50.230;18.944;2023-05-20T13:58:01;99059.59;;;21.57;56.74
63535;BME280;55128;50.230;18.944;2023-05-20T14:03:11;99047.81;;;22.00;56.12
63535;BME280;55128;50.230;18.944;2023-05-20T14:08:11;99034.28;;;21.79;55.52
63535;BME280;55128;50.230;18.944;2023-05-20T14:13:15;99020.59;;;22.23;55.90
63535;BME280;55128;50.230;18.944;2023-05-20T14:18:16;99019.66;;;22.12;55.66
63535;BME280;55128;50.230;18.944;2023-05-20T14:23:16;99023.34;;;22.02;53.97
63535;BME280;55128;50.230;18.944;2023-05-20T14:28:17;99019.56;;;21.93;54.52
63535;BME280;55128;50.230;18.944;2023-05-20T14:33:17;99011.34;;;21.94;55.06
63535;BME280;55128;50.230;18.944;2023-05-20T14:38:17;99004.78;;;21.97;54.07
63535;BME280;55128;50.230;18.944;2023-05-20T14:43:20;99007.28;;;22.10;53.96
63535;BME280;55128;50.230;18.944;2023-05-20T14:48:20;99002.22;;;21.96;54.43
63535;BME280;55128;50.230;18.944;2023-05-20T14:53:21;98987.41;;;22.21;53.11
63535;BME280;55128;50.230;18.944;2023-05-20T14:58:21;98988.06;;;22.34;52.37
63535;BME280;55128;50.230;18.944;2023-05-20T15:03:22;98981.28;;;22.49;52.69
63535;BME280;55128;50.230;18.944;2023-05-20T15:08:23;98971.78;;;22.65;51.81
63535;BME280;55128;50.230;18.944;2023-05-20T15:13:23;98980.31;;;22.60;50.58
63535;BME280;55128;50.230;18.944;2023-05-20T15:18:24;98977.50;;;22.81;50.98
63535;BME280;55128;50.230;18.944;2023-05-20T15:23:24;98970.06;;;22.64;50.63
63535;BME280;55128;50.230;18.944;2023-05-20T15:28:25;98953.53;;;22.77;50.93
63535;BME280;55128;50.230;18.944;2023-05-20T15:33:25;98965.25;;;22.77;51.63
63535;BME280;55128;50.230;18.944;2023-05-20T15:38:25;98967.53;;;22.72;50.81
63535;BME280;55128;50.230;18.944;2023-05-20T15:43:26;98963.84;;;22.73;51.07
63535;BME280;55128;50.230;18.944;2023-05-20T15:48:26;98960.09;;;22.64;50.47
63535;BME280;55128;50.230;18.944;2023-05-20T15:53:27;98960.69;;;22.68;50.66
63535;BME280;55128;50.230;18.944;2023-05-20T15:58:27;98966.66;;;22.62;51.96
63535;BME280;55128;50.230;18.944;2023-05-20T16:03:28;98954.25;;;22.59;51.76
63535;BME280;55128;50.230;18.944;2023-05-20T16:08:28;98963.78;;;22.63;52.12
63535;BME280;55128;50.230;18.944;2023-05-20T16:13:28;98956.19;;;22.38;52.85
63535;BME280;55128;50.230;18.944;2023-05-20T16:18:29;98975.97;;;22.38;52.85
63535;BME280;55128;50.230;18.944;2023-05-20T16:23:31;98961.72;;;22.36;53.28
63535;BME280;55128;50.230;18.944;2023-05-20T16:28:31;98962.28;;;22.30;54.33
63535;BME280;55128;50.230;18.944;2023-05-20T16:33:32;98956.78;;;22.20;55.16
63535;BME280;55128;50.230;18.944;2023-05-20T16:38:32;98947.66;;;22.11;55.58
63535;BME280;55128;50.230;18.944;2023-05-20T16:43:33;98947.47;;;22.03;55.81
63535;BME280;55128;50.230;18.944;2023-05-20T16:48:34;98946.06;;;22.09;56.37
63535;BME280;55128;50.230;18.944;2023-05-20T16:53:34;98948.13;;;21.96;56.32
63535;BME280;55128;50.230;18.944;2023-05-20T16:58:34;98962.81;;;21.72;56.97
63535;BME280;55128;50.230;18.944;2023-05-20T17:03:35;98969.81;;;21.53;57.55
63535;BME280;55128;50.230;18.944;2023-05-20T17:08:35;98966.31;;;21.42;58.09
63535;BME280;55128;50.230;18.944;2023-05-20T17:13:37;98958.91;;;21.44;58.57
63535;BME280;55128;50.230;18.944;2023-05-20T17:18:37;98964.22;;;21.34;58.85
63535;BME280;55128;50.230;18.944;2023-05-20T17:23:37;98966.19;;;21.32;59.21
63535;BME280;55128;50.230;18.944;2023-05-20T17:28:38;98966.59;;;21.27;59.72
63535;BME280;55128;50.230;18.944;2023-05-20T17:33:38;98966.41;;;21.19;60.03
63535;BME280;55128;50.230;18.944;2023-05-20T17:38:38;98963.00;;;21.06;60.75
63535;BME280;55128;50.230;18.944;2023-05-20T17:43:39;98955.94;;;20.93;61.49
63535;BME280;55128;50.230;18.944;2023-05-20T17:48:39;98954.25;;;20.81;62.22
63535;BME280;55128;50.230;18.944;2023-05-20T17:53:40;98968.78;;;20.69;62.93
63535;BME280;55128;50.230;18.944;2023-05-20T17:58:40;98972.84;;;20.63;63.38
63535;BME280;55128;50.230;18.944;2023-05-20T18:03:40;98963.41;;;20.35;64.53
63535;BME280;55128;50.230;18.944;2023-05-20T18:08:41;98962.81;;;20.31;65.18
63535;BME280;55128;50.230;18.944;2023-05-20T18:13:41;98964.78;;;20.29;65.06
63535;BME280;55128;50.230;18.944;2023-05-20T18:18:41;98960.47;;;20.15;65.93
63535;BME280;55128;50.230;18.944;2023-05-20T18:23:42;98958.50;;;20.06;66.57
63535;BME280;55128;50.230;18.944;2023-05-20T18:28:42;98961.19;;;19.95;67.23
63535;BME280;55128;50.230;18.944;2023-05-20T18:33:42;98960.72;;;19.78;67.82
63535;BME280;55128;50.230;18.944;2023-05-20T18:38:43;98958.81;;;19.68;68.29
63535;BME280;55128;50.230;18.944;2023-05-20T18:43:44;98966.06;;;19.67;68.15
63535;BME280;55128;50.230;18.944;2023-05-20T18:48:44;98979.72;;;19.53;69.13
63535;BME280;55128;50.230;18.944;2023-05-20T18:53:44;98969.25;;;19.37;69.77
63535;BME280;55128;50.230;18.944;2023-05-20T18:58:45;98976.50;;;19.36;69.70
63535;BME280;55128;50.230;18.944;2023-05-20T19:03:45;98967.41;;;19.26;69.73
63535;BME280;55128;50.230;18.944;2023-05-20T19:08:45;98974.28;;;19.30;69.18
63535;BME280;55128;50.230;18.944;2023-05-20T19:13:48;98977.03;;;19.17;69.34
63535;BME280;55128;50.230;18.944;2023-05-20T19:18:48;98971.03;;;19.14;69.25
63535;BME280;55128;50.230;18.944;2023-05-20T19:23:48;98970.88;;;19.04;69.14
63535;BME280;55128;50.230;18.944;2023-05-20T19:28:49;98969.66;;;18.84;69.31
63535;BME280;55128;50.230;18.944;2023-05-20T19:33:49;98971.31;;;18.74;69.43
63535;BME280;55128;50.230;18.944;2023-05-20T19:38:50;98981.53;;;18.69;68.90
63535;BME280;55128;50.230;18.944;2023-05-20T19:43:50;98974.13;;;18.59;68.47
63535;BME280;55128;50.230;18.944;2023-05-20T19:48:51;98966.25;;;18.45;68.91
63535;BME280;55128;50.230;18.944;2023-05-20T19:53:51;98974.44;;;18.31;68.87
63535;BME280;55128;50.230;18.944;2023-05-20T19:58:52;98974.03;;;18.11;68.66
63535;BME280;55128;50.230;18.944;2023-05-20T20:03:52;98967.81;;;17.98;68.16
63535;BME280;55128;50.230;18.944;2023-05-20T20:08:53;98978.25;;;17.90;67.75
63535;BME280;55128;50.230;18.944;2023-05-20T20:13:53;98980.47;;;17.83;67.42
63535;BME280;55128;50.230;18.944;2023-05-20T20:18:53;98984.13;;;17.69;67.53
63535;BME280;55128;50.230;18.944;2023-05-20T20:23:54;98985.50;;;17.62;67.30
63535;BME280;55128;50.230;18.944;2023-05-20T20:28:54;98981.22;;;17.59;67.43
63535;BME280;55128;50.230;18.944;2023-05-20T20:33:54;98974.88;;;17.47;67.79
63535;BME280;55128;50.230;18.944;2023-05-20T20:38:55;98966.28;;;17.42;67.69
63535;BME280;55128;50.230;18.944;2023-05-20T20:43:55;98958.97;;;17.32;68.32
63535;BME280;55128;50.230;18.944;2023-05-20T20:48:56;98963.88;;;17.12;68.92
63535;BME280;55128;50.230;18.944;2023-05-20T20:53:56;98969.84;;;17.03;69.37
63535;BME280;55128;50.230;18.944;2023-05-20T20:58:56;98979.25;;;16.96;69.78
63535;BME280;55128;50.230;18.944;2023-05-20T21:03:57;98975.94;;;16.78;70.91
63535;BME280;55128;50.230;18.944;2023-05-20T21:08:57;98979.38;;;16.80;70.87
63535;BME280;55128;50.230;18.944;2023-05-20T21:14:00;98980.78;;;16.58;71.68
63535;BME280;55128;50.230;18.944;2023-05-20T21:19:01;98971.00;;;16.57;72.02
63535;BME280;55128;50.230;18.944;2023-05-20T21:24:01;98979.47;;;16.51;72.21
63535;BME280;55128;50.230;18.944;2023-05-20T21:29:02;98975.09;;;16.36;72.54
63535;BME280;55128;50.230;18.944;2023-05-20T21:34:02;98981.53;;;16.33;73.13
63535;BME280;55128;50.230;18.944;2023-05-20T21:39:03;98968.59;;;16.25;73.39
63535;BME280;55128;50.230;18.944;2023-05-20T21:44:03;98970.00;;;16.31;73.47
63535;BME280;55128;50.230;18.944;2023-05-20T21:49:04;98972.91;;;16.13;73.94
63535;BME280;55128;50.230;18.944;2023-05-20T21:54:04;98971.56;;;16.21;73.15
63535;BME280;55128;50.230;18.944;2023-05-20T21:59:04;98972.44;;;16.21;73.55
63535;BME280;55128;50.230;18.944;2023-05-20T22:04:05;98972.34;;;16.08;74.23
63535;BME280;55128;50.230;18.944;2023-05-20T22:09:05;98979.25;;;15.98;74.58
63535;BME280;55128;50.230;18.944;2023-05-20T22:14:06;98976.25;;;16.03;74.42
63535;BME280;55128;50.230;18.944;2023-05-20T22:19:06;98978.38;;;15.98;74.79
63535;BME280;55128;50.230;18.944;2023-05-20T22:24:08;98962.81;;;15.90;74.74
63535;BME280;55128;50.230;18.944;2023-05-20T22:29:08;98966.81;;;15.83;75.48
63535;BME280;55128;50.230;18.944;2023-05-20T22:34:08;98968.22;;;15.74;75.61
63535;BME280;55128;50.230;18.944;2023-05-20T22:39:09;98963.66;;;15.76;75.39
63535;BME280;55128;50.230;18.944;2023-05-20T22:44:11;98964.09;;;15.68;76.00
63535;BME280;55128;50.230;18.944;2023-05-20T22:49:12;98963.22;;;15.68;76.41
63535;BME280;55128;50.230;18.944;2023-05-20T22:54:12;98956.06;;;15.68;76.04
63535;BME280;55128;50.230;18.944;2023-05-20T22:59:12;98954.13;;;15.70;76.04
63535;BME280;55128;50.230;18.944;2023-05-20T23:04:13;98942.66;;;15.54;76.73
63535;BME280;55128;50.230;18.944;2023-05-20T23:09:13;98944.69;;;15.50;76.74
63535;BME280;55128;50.230;18.944;2023-05-20T23:14:13;98937.22;;;15.55;76.52
63535;BME280;55128;50.230;18.944;2023-05-20T23:19:14;98931.84;;;15.55;77.17
63535;BME280;55128;50.230;18.944;2023-05-20T23:24:15;98935.00;;;15.48;77.48
63535;BME280;55128;50.230;18.944;2023-05-20T23:29:16;98933.38;;;15.45;78.06
63535;BME280;55128;50.230;18.944;2023-05-20T23:34:16;98924.13;;;15.51;78.14
63535;BME280;55128;50.230;18.944;2023-05-20T23:39:16;98924.81;;;15.54;77.98
63535;BME280;55128;50.230;18.944;2023-05-20T23:44:17;98931.59;;;15.60;77.94
63535;BME280;55128;50.230;18.944;2023-05-20T23:49:17;98923.66;;;15.59;78.22
63535;BME280;55128;50.230;18.944;2023-05-20T23:54:21;98927.47;;;15.69;78.30
63535;BME280;55128;50.230;18.944;2023-05-20T23:59:21;98931.19;;;15.66;78.21
